Humidity-temperature Sensor

Selected Measurement Type: Air Temperature

 
Air Temperature [°C]     6 entries per hour
Showing data from 6/19/2019 (00:00:00 Z) to 6/18/2019 (00:01:00 Z)
Previous Next [ Day | 3-Days | 7-Days ]
First Last
Prev [ Day | 3-Days | 7-Days ] Next
First Last

Start Time:     :
End Time:     :     
Time (in GMT) :00 :50 :40 :30 :20 :10
Previous Next [ Day | 3-Days | 7-Days ]
First Last
Prev [ Day | 3-Days | 7-Days ] Next
First Last


123 => good data
MM => data is determined as missing
-- => data not received/configured
Back to Top Back to Top
6/19/2019 00:00 to 23:10 26.11 25.98 26.18 26.19 26.33 26.35
6/18/2019 23:00 to 22:10 26.56 26.61 26.61 26.61 26.58 26.56
6/18/2019 22:00 to 21:10 26.54 26.52 26.56 26.56 26.60 26.65
6/18/2019 21:00 to 20:10 26.68 26.76 26.80 26.82 26.83 26.89
6/18/2019 20:00 to 19:10 26.78 26.75 26.72 26.74 26.66 26.72
6/18/2019 19:00 to 18:10 26.61 26.51 26.46 26.28 26.33 26.29
6/18/2019 18:00 to 17:10 26.24 26.03 25.87 25.80 26.01 26.06
6/18/2019 17:00 to 16:10 25.80 25.82 25.83 25.68 25.73 25.75
6/18/2019 16:00 to 15:10 25.83 25.81 26.04 25.90 26.25 26.30
6/18/2019 15:00 to 14:10 26.52 26.37 26.39 26.26 26.42 26.48
6/18/2019 14:00 to 13:10 26.34 26.28 26.28 26.14 26.13 26.21
6/18/2019 13:00 to 12:10 26.12 26.06 25.78 25.72 25.68 25.69
6/18/2019 12:00 to 11:10 25.64 25.63 25.88 25.76 25.67 25.74
6/18/2019 11:00 to 10:10 25.79 25.80 25.59 25.66 25.55 25.85
6/18/2019 10:00 to 9:10 25.80 25.82 25.73 25.68 25.99 25.91
6/18/2019 09:00 to 8:10 25.65 25.90 26.02 26.31 26.44 26.72
6/18/2019 08:00 to 7:10 26.90 26.94 26.90 26.91 26.82 26.65
6/18/2019 07:00 to 6:10 26.65 26.60 26.71 26.62 26.41 26.61
6/18/2019 06:00 to 5:10 27.10 27.10 27.04 26.96 27.08 27.10
6/18/2019 05:00 to 4:10 27.19 27.20 27.15 27.13 27.20 27.19
6/18/2019 04:00 to 3:10 27.25 27.19 27.18 27.17 27.09 27.05
6/18/2019 03:00 to 2:10 26.46 26.85 26.03 27.01 27.25 27.33
6/18/2019 02:00 to 1:10 27.21 27.25 27.24 27.23 27.25 27.25
6/18/2019 01:00 to 0:10 27.27 27.16 27.19 27.17 27.20 27.13